Time;durP1;ratioP1;P1;durP2;ratioP2;P2;SDS_P1;SDS_P2;PMS_P1;PMS_P2;Temp;Humidity;BMP_temperature;BMP_pressure;BME280_temperature;BME280_humidity;BME280_pressure;Samples;Min_cycle;Max_cycle;Signal;HPM_P1;HPM_P2
2023/05/07 00:02:20;;;;;;;7.93;7.13;;;;;;;;;;5015083;28;20041;-54
2023/05/07 00:04:46;;;;;;;8.20;6.97;;;;;;;;;;5015110;28;20377;-54
2023/05/07 00:07:11;;;;;;;7.55;6.85;;;;;;;;;;5014186;28;20041;-54
2023/05/07 00:09:37;;;;;;;9.45;6.90;;;;;;;;;;5014536;28;20033;-54
2023/05/07 00:12:02;;;;;;;8.32;6.68;;;;;;;;;;5014475;28;20437;-54
2023/05/07 00:14:27;;;;;;;8.13;6.18;;;;;;;;;;5014223;28;20120;-54
2023/05/07 00:16:53;;;;;;;9.23;6.72;;;;;;;;;;4996502;28;20033;-54
2023/05/07 00:19:18;;;;;;;7.85;7.05;;;;;;;;;;4996695;28;20129;-54
2023/05/07 00:21:43;;;;;;;8.60;6.60;;;;;;;;;;5014576;28;20022;-54
2023/05/07 00:24:09;;;;;;;7.18;6.47;;;;;;;;;;5014198;28;20064;-54
2023/05/07 00:26:34;;;;;;;7.78;6.70;;;;;;;;;;5014022;28;20025;-54
2023/05/07 00:28:59;;;;;;;8.48;7.00;;;;;;;;;;5014116;28;20026;-54
2023/05/07 00:31:25;;;;;;;6.88;6.07;;;;;;;;;;4996353;28;20492;-54
2023/05/07 00:33:50;;;;;;;6.75;5.97;;;;;;;;;;5014303;28;20042;-55
2023/05/07 00:36:19;;;;;;;6.45;5.85;;;;;;;;;;4996149;28;20022;-55
2023/05/07 00:38:44;;;;;;;7.28;6.03;;;;;;;;;;4996342;28;20369;-54
2023/05/07 00:41:10;;;;;;;6.25;5.65;;;;;;;;;;4996217;28;20022;-54
2023/05/07 00:43:35;;;;;;;5.45;5.03;;;;;;;;;;5014271;28;20119;-54
2023/05/07 00:46:01;;;;;;;5.25;4.82;;;;;;;;;;5014254;28;20025;-54
2023/05/07 00:48:26;;;;;;;4.80;4.40;;;;;;;;;;5013929;28;20139;-54
2023/05/07 00:50:52;;;;;;;5.05;4.55;;;;;;;;;;4995892;28;20045;-54
2023/05/07 00:53:17;;;;;;;4.72;4.25;;;;;;;;;;4996012;28;20406;-54
2023/05/07 00:55:42;;;;;;;4.07;3.78;;;;;;;;;;4996071;28;20006;-54
2023/05/07 00:58:08;;;;;;;4.50;4.10;;;;;;;;;;5014161;28;20030;-54
2023/05/07 01:00:34;;;;;;;4.20;3.90;;;;;;;;;;4995982;28;20076;-54
2023/05/07 01:02:59;;;;;;;4.25;3.85;;;;;;;;;;5013596;28;20427;-60
2023/05/07 01:05:26;;;;;;;3.85;3.58;;;;;;;;;;5013980;28;20044;-60
2023/05/07 01:07:52;;;;;;;4.32;3.60;;;;;;;;;;4996517;28;20025;-61
2023/05/07 01:10:18;;;;;;;3.60;3.30;;;;;;;;;;5014017;28;20040;-61
2023/05/07 01:12:44;;;;;;;3.65;3.28;;;;;;;;;;5013757;28;20026;-61
2023/05/07 01:15:11;;;;;;;3.60;3.35;;;;;;;;;;4995945;28;20091;-61
2023/05/07 01:17:39;;;;;;;3.15;2.95;;;;;;;;;;5013382;28;20026;-61
2023/05/07 01:20:07;;;;;;;2.15;2.05;;;;;;;;;;4996041;28;20022;-61
2023/05/07 01:22:33;;;;;;;3.05;2.58;;;;;;;;;;4995107;28;20038;-61
2023/05/07 01:24:59;;;;;;;2.80;2.60;;;;;;;;;;4995713;28;20069;-61
2023/05/07 01:27:27;;;;;;;2.22;2.13;;;;;;;;;;4997004;28;20022;-61
2023/05/07 01:29:52;;;;;;;2.30;2.20;;;;;;;;;;4999244;28;20133;-60
2023/05/07 01:32:19;;;;;;;2.30;2.10;;;;;;;;;;4999538;28;20115;-61
2023/05/07 01:34:46;;;;;;;2.40;2.20;;;;;;;;;;5016801;28;20104;-61
2023/05/07 01:37:12;;;;;;;2.05;1.95;;;;;;;;;;4999611;28;20040;-61
2023/05/07 01:39:38;;;;;;;2.53;2.22;;;;;;;;;;5017352;28;20026;-61
2023/05/07 01:42:04;;;;;;;2.15;1.95;;;;;;;;;;4999662;28;20032;-61
2023/05/07 01:44:29;;;;;;;2.03;1.92;;;;;;;;;;4998580;28;20121;-60
2023/05/07 01:46:55;;;;;;;2.10;2.00;;;;;;;;;;4999087;28;20025;-60
2023/05/07 01:49:21;;;;;;;1.75;1.65;;;;;;;;;;4999372;28;20033;-61
2023/05/07 01:51:46;;;;;;;2.28;1.65;;;;;;;;;;5016831;28;20054;-61
2023/05/07 01:54:12;;;;;;;2.00;1.80;;;;;;;;;;5017224;28;20069;-61
2023/05/07 01:56:37;;;;;;;1.80;1.70;;;;;;;;;;4999288;28;20036;-61
2023/05/07 01:59:02;;;;;;;1.60;1.50;;;;;;;;;;4999451;28;20017;-61
2023/05/07 02:01:28;;;;;;;2.33;1.80;;;;;;;;;;4999088;28;20026;-61
2023/05/07 02:03:54;;;;;;;1.92;1.83;;;;;;;;;;4999431;28;20033;-61
2023/05/07 02:06:23;;;;;;;2.13;2.00;;;;;;;;;;4998625;28;20022;-61
2023/05/07 02:08:50;;;;;;;1.75;1.65;;;;;;;;;;4998645;28;20037;-61
2023/05/07 02:11:16;;;;;;;1.52;1.42;;;;;;;;;;4998535;28;20504;-61
2023/05/07 02:13:41;;;;;;;1.55;1.45;;;;;;;;;;5016122;28;20551;-61
2023/05/07 02:16:06;;;;;;;1.42;1.33;;;;;;;;;;5016273;28;20032;-61
2023/05/07 02:18:32;;;;;;;1.30;1.20;;;;;;;;;;4998607;28;20484;-61
2023/05/07 02:20:57;;;;;;;1.10;1.10;;;;;;;;;;4998456;28;20468;-60
2023/05/07 02:23:23;;;;;;;1.95;1.23;;;;;;;;;;4998804;28;20022;-60
2023/05/07 02:25:48;;;;;;;1.40;1.30;;;;;;;;;;4998284;28;20064;-60
2023/05/07 02:28:15;;;;;;;1.40;1.30;;;;;;;;;;4999069;28;20433;-56
2023/05/07 02:30:49;;;;;;;1.33;1.23;;;;;;;;;;4998788;28;20026;-60
2023/05/07 02:33:14;;;;;;;1.10;1.10;;;;;;;;;;4998101;28;20469;-60
2023/05/07 02:35:40;;;;;;;1.27;1.17;;;;;;;;;;5015882;28;20033;-60
2023/05/07 02:38:06;;;;;;;1.15;1.05;;;;;;;;;;4998683;28;20080;-60
2023/05/07 02:40:33;;;;;;;1.08;1.08;;;;;;;;;;4998333;28;20026;-60
2023/05/07 02:42:59;;;;;;;1.50;1.20;;;;;;;;;;4998878;28;20036;-60
2023/05/07 02:45:24;;;;;;;1.20;1.10;;;;;;;;;;5015942;28;20112;-61
2023/05/07 02:47:52;;;;;;;1.33;1.10;;;;;;;;;;4998417;28;20061;-61
2023/05/07 02:50:17;;;;;;;1.23;1.13;;;;;;;;;;5015507;28;20049;-61
2023/05/07 02:52:43;;;;;;;1.10;1.10;;;;;;;;;;4998196;28;20029;-61
2023/05/07 02:55:08;;;;;;;1.05;1.05;;;;;;;;;;4998422;28;20030;-61
2023/05/07 02:57:34;;;;;;;1.00;0.95;;;;;;;;;;4997767;28;20026;-61
2023/05/07 03:00:09;;;;;;;1.55;1.17;;;;;;;;;;4998520;28;20377;-61
2023/05/07 03:02:35;;;;;;;1.65;1.13;;;;;;;;;;4998001;28;20364;-61
2023/05/07 03:05:01;;;;;;;1.13;1.00;;;;;;;;;;4997606;28;20026;-61
2023/05/07 03:07:26;;;;;;;1.95;0.90;;;;;;;;;;4997751;28;20030;-61
2023/05/07 03:09:53;;;;;;;1.17;1.08;;;;;;;;;;4997551;28;20049;-61
2023/05/07 03:12:18;;;;;;;1.20;1.10;;;;;;;;;;4997429;28;20084;-61
2023/05/07 03:14:44;;;;;;;0.90;0.90;;;;;;;;;;4997311;28;20037;-61
2023/05/07 03:17:09;;;;;;;1.00;1.00;;;;;;;;;;4997871;28;20041;-61
2023/05/07 03:19:35;;;;;;;1.58;0.88;;;;;;;;;;4997366;28;20096;-61
2023/05/07 03:22:00;;;;;;;1.10;1.00;;;;;;;;;;4997438;28;20109;-61
2023/05/07 03:24:26;;;;;;;1.05;0.90;;;;;;;;;;4997222;28;20538;-61
2023/05/07 03:26:51;;;;;;;0.70;0.70;;;;;;;;;;4997714;28;20451;-61
2023/05/07 03:29:17;;;;;;;1.42;1.00;;;;;;;;;;4997142;28;20464;-61
2023/05/07 03:31:42;;;;;;;0.90;0.90;;;;;;;;;;5015075;28;20038;-61
2023/05/07 03:34:08;;;;;;;0.82;0.82;;;;;;;;;;5014868;28;20030;-61
2023/05/07 03:36:33;;;;;;;1.00;0.95;;;;;;;;;;5015010;28;20117;-62
2023/05/07 03:39:00;;;;;;;1.00;1.00;;;;;;;;;;5014999;28;20073;-61
2023/05/07 03:41:33;;;;;;;0.80;0.80;;;;;;;;;;5015082;28;20024;-61
2023/05/07 03:43:59;;;;;;;1.20;0.70;;;;;;;;;;4997340;28;20376;-61
2023/05/07 03:46:26;;;;;;;0.95;0.85;;;;;;;;;;4996749;28;20026;-61
2023/05/07 03:48:52;;;;;;;0.82;0.77;;;;;;;;;;4996612;28;20022;-61
2023/05/07 03:51:18;;;;;;;0.68;0.60;;;;;;;;;;4977074;28;20481;-61
2023/05/07 03:53:44;;;;;;;0.77;0.77;;;;;;;;;;4977924;28;20048;-61
2023/05/07 03:56:09;;;;;;;0.70;0.70;;;;;;;;;;4977256;28;20030;-61
2023/05/07 03:58:37;;;;;;;1.05;0.90;;;;;;;;;;4977158;28;20068;-61
2023/05/07 04:01:07;;;;;;;0.90;0.90;;;;;;;;;;4977189;28;20031;-60
2023/05/07 04:03:32;;;;;;;0.70;0.70;;;;;;;;;;4993314;28;20057;-60
2023/05/07 04:05:59;;;;;;;0.65;0.65;;;;;;;;;;4977331;28;20449;-60
2023/05/07 04:08:24;;;;;;;1.10;0.98;;;;;;;;;;4977442;28;20053;-60
2023/05/07 04:10:56;;;;;;;0.80;0.80;;;;;;;;;;4977183;28;20100;-60
2023/05/07 04:13:23;;;;;;;;;;;;;;;;;;4978016;28;20042;-61
2023/05/07 04:15:49;;;;;;;1.30;0.93;;;;;;;;;;4993219;28;19947;-60
2023/05/07 04:18:16;;;;;;;1.30;0.70;;;;;;;;;;4977223;28;20264;-60
2023/05/07 04:20:44;;;;;;;0.75;0.75;;;;;;;;;;4977219;28;20472;-60
2023/05/07 04:23:12;;;;;;;0.90;0.90;;;;;;;;;;4976975;28;20034;-60
2023/05/07 04:25:37;;;;;;;0.80;0.80;;;;;;;;;;4993081;28;20540;-61
2023/05/07 04:28:27;;;;;;;0.85;0.85;;;;;;;;;;4977114;28;20037;-61
2023/05/07 04:30:53;;;;;;;0.73;0.73;;;;;;;;;;4976909;28;20030;-60
2023/05/07 04:33:19;;;;;;;0.73;0.68;;;;;;;;;;4977543;28;20121;-60
2023/05/07 04:35:46;;;;;;;0.60;0.60;;;;;;;;;;4976762;28;20109;-61
2023/05/07 04:38:12;;;;;;;0.70;0.70;;;;;;;;;;4977121;28;20125;-61
2023/05/07 04:40:38;;;;;;;0.80;0.80;;;;;;;;;;4977329;28;20023;-61
2023/05/07 04:43:04;;;;;;;0.90;0.90;;;;;;;;;;4977031;28;20106;-61
2023/05/07 04:45:35;;;;;;;;;;;;;;;;;;4977454;28;20361;-60
2023/05/07 04:48:00;;;;;;;0.80;0.77;;;;;;;;;;4976859;28;19916;-60
2023/05/07 04:50:26;;;;;;;0.73;0.60;;;;;;;;;;5001747;28;20484;-61
2023/05/07 04:52:56;;;;;;;0.90;0.90;;;;;;;;;;4996273;28;20030;-60
2023/05/07 04:55:23;;;;;;;1.02;1.00;;;;;;;;;;4995970;28;20708;-60
2023/05/07 04:57:48;;;;;;;1.13;1.02;;;;;;;;;;4996258;28;20050;-60
2023/05/07 05:00:16;;;;;;;1.52;1.25;;;;;;;;;;4996301;28;20030;-60
2023/05/07 05:02:44;;;;;;;1.88;1.30;;;;;;;;;;4997821;28;20435;-60
2023/05/07 05:05:11;;;;;;;1.65;1.23;;;;;;;;;;5000413;28;20034;-61
2023/05/07 05:07:37;;;;;;;1.40;1.30;;;;;;;;;;5000105;28;20022;-61
2023/05/07 05:10:05;;;;;;;1.40;1.30;;;;;;;;;;5017639;28;20037;-61
2023/05/07 05:12:33;;;;;;;1.10;1.10;;;;;;;;;;4999789;28;20026;-61
2023/05/07 05:15:02;;;;;;;1.70;1.60;;;;;;;;;;4999820;28;20025;-61
2023/05/07 05:17:28;;;;;;;1.77;1.67;;;;;;;;;;5012857;23;20049;-61
2023/05/07 05:19:53;;;;;;;2.42;2.22;;;;;;;;;;4999884;28;20029;-61
2023/05/07 05:22:19;;;;;;;3.17;2.92;;;;;;;;;;5016140;28;20041;-61
2023/05/07 05:24:44;;;;;;;2.08;1.98;;;;;;;;;;5000222;28;20088;-60
2023/05/07 05:27:10;;;;;;;1.73;1.63;;;;;;;;;;4999425;28;20029;-61
2023/05/07 05:29:35;;;;;;;2.78;2.58;;;;;;;;;;5015741;28;20435;-61
2023/05/07 05:32:01;;;;;;;4.38;3.70;;;;;;;;;;5015151;28;20443;-60
2023/05/07 05:34:28;;;;;;;4.40;3.97;;;;;;;;;;4998888;28;20511;-60
2023/05/07 05:36:55;;;;;;;1.33;1.20;;;;;;;;;;4999051;28;20125;-60
2023/05/07 05:39:21;;;;;;;1.30;1.20;;;;;;;;;;4999169;28;20018;-60
2023/05/07 05:41:46;;;;;;;1.27;1.17;;;;;;;;;;4998872;28;20026;-60
2023/05/07 05:44:13;;;;;;;1.10;1.10;;;;;;;;;;4998431;28;20022;-60
2023/05/07 05:46:40;;;;;;;0.90;0.90;;;;;;;;;;4998867;28;20070;-60
2023/05/07 05:49:06;;;;;;;1.40;1.30;;;;;;;;;;5016370;28;20061;-60
2023/05/07 05:51:32;;;;;;;1.40;1.30;;;;;;;;;;5015813;28;20033;-60
2023/05/07 05:53:57;;;;;;;1.30;1.20;;;;;;;;;;5015026;28;20032;-60
2023/05/07 05:56:23;;;;;;;1.60;1.50;;;;;;;;;;5014407;28;20408;-60
2023/05/07 05:58:48;;;;;;;1.45;1.35;;;;;;;;;;5016222;28;20365;-60
2023/05/07 06:01:14;;;;;;;0.95;0.90;;;;;;;;;;5014838;28;20044;-61
2023/05/07 06:03:39;;;;;;;1.90;1.80;;;;;;;;;;5014857;28;20029;-61
2023/05/07 06:06:11;;;;;;;0.80;0.80;;;;;;;;;;5014656;28;20473;-61
2023/05/07 06:08:36;;;;;;;1.58;1.38;;;;;;;;;;5014225;28;20037;-61
2023/05/07 06:11:03;;;;;;;2.92;2.83;;;;;;;;;;5015311;28;20022;-60
2023/05/07 06:13:31;;;;;;;11.20;10.20;;;;;;;;;;5013157;28;20083;-61
2023/05/07 06:15:58;;;;;;;6.82;6.32;;;;;;;;;;5014983;28;20034;-61
2023/05/07 06:18:23;;;;;;;3.42;3.13;;;;;;;;;;5013453;28;20129;-61
2023/05/07 06:20:49;;;;;;;3.92;3.45;;;;;;;;;;5014168;28;20112;-61
2023/05/07 06:23:22;;;;;;;2.50;2.30;;;;;;;;;;5013950;28;20104;-60
2023/05/07 06:25:48;;;;;;;2.75;2.55;;;;;;;;;;5013656;28;20057;-64
2023/05/07 06:28:14;;;;;;;3.22;3.00;;;;;;;;;;5015121;28;20371;-61
2023/05/07 06:30:41;;;;;;;2.80;2.60;;;;;;;;;;5008077;28;20029;-61
2023/05/07 06:33:07;;;;;;;1.80;1.70;;;;;;;;;;4995199;28;20048;-60
2023/05/07 06:35:33;;;;;;;1.20;1.20;;;;;;;;;;4976985;28;20563;-60
2023/05/07 06:37:59;;;;;;;1.50;1.40;;;;;;;;;;4976922;28;20025;-61
2023/05/07 06:40:27;;;;;;;1.70;1.60;;;;;;;;;;4978053;28;20030;-61
2023/05/07 06:42:52;;;;;;;6.85;5.10;;;;;;;;;;4995439;28;20014;-61
2023/05/07 06:45:27;;;;;;;2.28;2.05;;;;;;;;;;4978027;28;20029;-61
2023/05/07 06:47:54;;;;;;;1.77;1.67;;;;;;;;;;4977957;28;20069;-61
2023/05/07 06:50:21;;;;;;;2.25;2.15;;;;;;;;;;4977683;28;20077;-61
2023/05/07 06:52:47;;;;;;;1.13;1.02;;;;;;;;;;4978943;28;20102;-61
2023/05/07 06:55:12;;;;;;;0.98;0.95;;;;;;;;;;5016385;28;20041;-61
2023/05/07 06:57:38;;;;;;;9.15;2.90;;;;;;;;;;5034028;28;20052;-61
2023/05/07 07:00:06;;;;;;;5.70;2.80;;;;;;;;;;5016189;28;20526;-61
2023/05/07 07:02:39;;;;;;;8.20;4.40;;;;;;;;;;5027668;28;20152;-61
2023/05/07 07:05:06;;;;;;;2.53;1.73;;;;;;;;;;5001703;28;20532;-61
2023/05/07 07:07:32;;;;;;;1.00;1.00;;;;;;;;;;5013374;28;20034;-61
2023/05/07 07:09:57;;;;;;;0.98;0.93;;;;;;;;;;4996096;28;20076;-61
2023/05/07 07:12:24;;;;;;;0.95;0.95;;;;;;;;;;4995566;28;20041;-60
2023/05/07 07:14:50;;;;;;;1.00;1.00;;;;;;;;;;4995871;28;20540;-60
2023/05/07 07:17:15;;;;;;;0.85;0.85;;;;;;;;;;4995753;28;20113;-61
2023/05/07 07:19:41;;;;;;;2.35;0.85;;;;;;;;;;5013770;28;20029;-61
2023/05/07 07:22:07;;;;;;;1.30;1.20;;;;;;;;;;4995665;28;20420;-61
2023/05/07 07:24:32;;;;;;;1.40;1.30;;;;;;;;;;4995913;28;20034;-60
2023/05/07 07:27:01;;;;;;;3.20;3.00;;;;;;;;;;4996562;28;20021;-61
2023/05/07 07:29:27;;;;;;;8.43;7.18;;;;;;;;;;4995820;28;20034;-61
2023/05/07 07:31:53;;;;;;;21.40;13.93;;;;;;;;;;4996373;28;20096;-60
2023/05/07 07:34:19;;;;;;;10.63;7.50;;;;;;;;;;4995804;28;20468;-60
2023/05/07 07:36:44;;;;;;;11.48;10.35;;;;;;;;;;4995836;28;20080;-60
2023/05/07 07:39:10;;;;;;;5.40;5.00;;;;;;;;;;5013539;28;20030;-64
2023/05/07 07:41:36;;;;;;;2.25;2.15;;;;;;;;;;4995798;28;20022;-61
2023/05/07 07:44:06;;;;;;;2.72;2.47;;;;;;;;;;4995735;28;20092;-61
2023/05/07 07:46:34;;;;;;;3.17;1.90;;;;;;;;;;4996256;28;20100;-62
2023/05/07 07:49:00;;;;;;;2.00;1.85;;;;;;;;;;4996153;28;20457;-61
2023/05/07 07:51:26;;;;;;;1.50;1.40;;;;;;;;;;5014123;28;20030;-61
2023/05/07 07:53:51;;;;;;;5.38;3.00;;;;;;;;;;4995562;28;20029;-61
2023/05/07 07:56:17;;;;;;;7.07;4.47;;;;;;;;;;4995219;28;20023;-62
2023/05/07 07:58:42;;;;;;;5.97;3.50;;;;;;;;;;4996064;28;20108;-61
2023/05/07 08:01:08;;;;;;;2.42;2.22;;;;;;;;;;4995980;28;20496;-61
2023/05/07 08:03:33;;;;;;;3.55;2.72;;;;;;;;;;4995909;28;20030;-61
2023/05/07 08:06:00;;;;;;;6.05;4.85;;;;;;;;;;5014028;28;20049;-61
2023/05/07 08:08:26;;;;;;;7.72;6.30;;;;;;;;;;4995770;28;20029;-61
2023/05/07 08:10:53;;;;;;;7.25;6.60;;;;;;;;;;4996071;28;20022;-61
2023/05/07 08:13:25;;;;;;;8.68;7.97;;;;;;;;;;4995931;28;20029;-61
2023/05/07 08:15:51;;;;;;;2.03;1.92;;;;;;;;;;5012941;28;20032;-61
2023/05/07 08:18:16;;;;;;;2.58;2.47;;;;;;;;;;5013559;28;20487;-61
2023/05/07 08:20:43;;;;;;;2.25;1.60;;;;;;;;;;4995640;28;20113;-62
2023/05/07 08:23:13;;;;;;;3.08;2.88;;;;;;;;;;4980025;28;20029;-62
2023/05/07 08:25:40;;;;;;;4.72;4.40;;;;;;;;;;4995706;28;20431;-62
2023/05/07 08:28:06;;;;;;;2.40;2.30;;;;;;;;;;4995555;28;20040;-62
2023/05/07 08:30:31;;;;;;;2.92;2.72;;;;;;;;;;5013208;28;20384;-62
2023/05/07 08:32:56;;;;;;;31.90;24.20;;;;;;;;;;4995877;28;20038;-62
2023/05/07 08:35:22;;;;;;;65.22;40.78;;;;;;;;;;4995193;28;20465;-62
2023/05/07 08:37:47;;;;;;;91.88;56.33;;;;;;;;;;5019911;28;20033;-62
2023/05/07 08:40:14;;;;;;;203.75;117.47;;;;;;;;;;5002409;28;20033;-62
2023/05/07 08:42:39;;;;;;;63.00;49.95;;;;;;;;;;5019981;28;20021;-62
2023/05/07 08:45:08;;;;;;;52.30;26.10;;;;;;;;;;5002418;28;20030;-62
2023/05/07 08:47:42;;;;;;;48.95;28.25;;;;;;;;;;5002255;28;20123;-61
2023/05/07 08:50:08;;;;;;;116.13;62.10;;;;;;;;;;5019953;28;20071;-62
2023/05/07 08:52:34;;;;;;;108.95;54.97;;;;;;;;;;5001853;28;20507;-61
2023/05/07 08:54:59;;;;;;;32.33;17.67;;;;;;;;;;5019873;28;20041;-62
2023/05/07 08:57:25;;;;;;;138.00;65.40;;;;;;;;;;5002222;28;20036;-61
2023/05/07 08:59:51;;;;;;;119.93;57.20;;;;;;;;;;5002451;28;20030;-61
2023/05/07 09:02:17;;;;;;;36.83;18.52;;;;;;;;;;5002531;28;20113;-62
2023/05/07 09:04:43;;;;;;;30.20;17.10;;;;;;;;;;5019868;28;20083;-62
2023/05/07 09:07:09;;;;;;;33.70;19.35;;;;;;;;;;5002111;28;20022;-62
2023/05/07 09:09:39;;;;;;;;;;;;;;;;;;5002298;28;20072;-61
2023/05/07 09:12:06;;;;;;;50.78;23.92;;;;;;;;;;5002064;28;19941;-62
2023/05/07 09:14:33;;;;;;;17.92;10.15;;;;;;;;;;4985874;28;20072;-62
2023/05/07 09:16:59;;;;;;;10.85;8.00;;;;;;;;;;4998522;28;20034;-61
2023/05/07 09:19:25;;;;;;;8.15;6.18;;;;;;;;;;4999057;28;20027;-62
2023/05/07 09:22:02;;;;;;;17.27;10.65;;;;;;;;;;4999697;28;20057;-61
2023/05/07 09:24:34;;;;;;;22.58;12.90;;;;;;;;;;4999508;28;20489;-62
2023/05/07 09:27:02;;;;;;;4.57;4.05;;;;;;;;;;5000954;28;20515;-61
2023/05/07 09:29:29;;;;;;;88.15;42.13;;;;;;;;;;4999328;28;20085;-61
2023/05/07 09:31:55;;;;;;;27.23;13.52;;;;;;;;;;4999302;28;20050;-61
2023/05/07 09:34:21;;;;;;;57.38;26.60;;;;;;;;;;4999302;28;20115;-61
2023/05/07 09:36:47;;;;;;;15.10;10.50;;;;;;;;;;4999481;28;20034;-61
2023/05/07 09:39:13;;;;;;;20.15;13.95;;;;;;;;;;4999295;28;20052;-64
2023/05/07 09:41:45;;;;;;;26.95;20.23;;;;;;;;;;4999850;28;20104;-66
2023/05/07 09:44:21;;;;;;;32.10;24.45;;;;;;;;;;5000736;28;20373;-62
2023/05/07 09:46:53;;;;;;;22.27;17.63;;;;;;;;;;4999373;28;20030;-62
2023/05/07 09:49:23;;;;;;;16.90;15.18;;;;;;;;;;4995074;28;20041;-62
2023/05/07 09:51:52;;;;;;;12.75;11.45;;;;;;;;;;4996278;28;20062;-62
2023/05/07 09:54:20;;;;;;;14.73;13.43;;;;;;;;;;4995893;28;20496;-62
2023/05/07 09:56:49;;;;;;;12.05;10.27;;;;;;;;;;4995871;28;20030;-62
2023/05/07 09:59:16;;;;;;;2.95;2.75;;;;;;;;;;4996249;28;20105;-62
2023/05/07 10:01:43;;;;;;;11.57;10.38;;;;;;;;;;4995982;28;20033;-62
2023/05/07 10:04:16;;;;;;;80.82;60.75;;;;;;;;;;4994846;28;20415;-62
2023/05/07 10:06:44;;;;;;;309.85;139.43;;;;;;;;;;4995163;28;20040;-66
2023/05/07 10:09:11;;;;;;;38.22;22.10;;;;;;;;;;4994712;28;20057;-63
2023/05/07 10:11:36;;;;;;;179.70;98.70;;;;;;;;;;4994583;28;20030;-63
2023/05/07 10:14:03;;;;;;;110.40;69.05;;;;;;;;;;4994776;28;20031;-63
2023/05/07 10:16:32;;;;;;;66.40;45.03;;;;;;;;;;4995677;28;20030;-62
2023/05/07 10:18:58;;;;;;;40.90;36.47;;;;;;;;;;4974989;28;20030;-63
2023/05/07 10:21:25;;;;;;;14.85;13.45;;;;;;;;;;4978121;28;20105;-63
2023/05/07 10:23:59;;;;;;;8.48;7.68;;;;;;;;;;4978583;28;20034;-63
2023/05/07 10:26:27;;;;;;;9.95;7.20;;;;;;;;;;4978013;28;20034;-63
2023/05/07 10:28:56;;;;;;;5.93;5.00;;;;;;;;;;4995434;28;20057;-63
2023/05/07 10:31:40;;;;;;;9.80;5.20;;;;;;;;;;4977999;28;20065;-63
2023/05/07 10:34:14;;;;;;;3.58;3.28;;;;;;;;;;4978497;28;20066;-63
2023/05/07 10:36:40;;;;;;;4.18;3.78;;;;;;;;;;4978525;28;20365;-63
2023/05/07 10:39:07;;;;;;;3.90;3.60;;;;;;;;;;4978490;28;20018;-63
2023/05/07 10:41:32;;;;;;;4.40;4.00;;;;;;;;;;4995627;28;20030;-63
2023/05/07 10:44:01;;;;;;;2.55;2.35;;;;;;;;;;4995805;28;20022;-63
2023/05/07 10:46:29;;;;;;;4.68;2.95;;;;;;;;;;4977778;28;20077;-62
2023/05/07 10:49:05;;;;;;;12.15;8.63;;;;;;;;;;4996060;28;20485;-55
2023/05/07 10:51:39;;;;;;;14.65;9.48;;;;;;;;;;4995559;28;20393;-54
2023/05/07 10:54:18;;;;;;;3.97;3.67;;;;;;;;;;4995674;28;20381;-63
2023/05/07 10:56:53;;;;;;;8.10;5.85;;;;;;;;;;4995471;28;20358;-63
2023/05/07 10:59:31;;;;;;;4.57;4.18;;;;;;;;;;4994288;28;20080;-63
2023/05/07 11:02:03;;;;;;;3.20;3.00;;;;;;;;;;4978144;28;20029;-54
2023/05/07 11:04:41;;;;;;;3.80;2.78;;;;;;;;;;4978532;28;20477;-54
2023/05/07 11:07:17;;;;;;;2.95;2.00;;;;;;;;;;4994084;28;20495;-55
2023/05/07 11:09:52;;;;;;;2.40;2.30;;;;;;;;;;4961474;28;20069;-55
2023/05/07 11:12:35;;;;;;;4.88;4.35;;;;;;;;;;4977704;28;20039;-55
2023/05/07 11:15:05;;;;;;;32.00;26.15;;;;;;;;;;4977835;28;20027;-55
2023/05/07 11:18:00;;;;;;;3.78;3.40;;;;;;;;;;4983280;28;20085;-55
2023/05/07 11:20:52;;;;;;;4.97;3.20;;;;;;;;;;4994160;28;20049;-55
2023/05/07 11:23:40;;;;;;;3.20;3.00;;;;;;;;;;4994748;28;20034;-54
2023/05/07 11:26:13;;;;;;;2.25;1.90;;;;;;;;;;4993516;28;20088;-55
2023/05/07 11:28:41;;;;;;;3.15;2.58;;;;;;;;;;4993172;28;20089;-55
2023/05/07 11:31:07;;;;;;;2.15;1.95;;;;;;;;;;4992966;28;20049;-55
2023/05/07 11:33:34;;;;;;;2.47;2.38;;;;;;;;;;4993587;28;20054;-55
2023/05/07 11:36:03;;;;;;;2.60;2.45;;;;;;;;;;4993144;28;20093;-54
2023/05/07 11:38:38;;;;;;;3.13;2.92;;;;;;;;;;4993173;28;20026;-54
2023/05/07 11:41:07;;;;;;;4.38;2.70;;;;;;;;;;4994558;28;20038;-55
2023/05/07 11:43:32;;;;;;;4.68;4.18;;;;;;;;;;4994583;28;20022;-55
2023/05/07 11:46:11;;;;;;;9.88;8.10;;;;;;;;;;4994778;28;20484;-54
2023/05/07 11:48:36;;;;;;;18.88;12.25;;;;;;;;;;4994312;28;20066;-55
2023/05/07 11:51:03;;;;;;;29.25;15.55;;;;;;;;;;4993763;28;20050;-55
2023/05/07 11:53:35;;;;;;;14.07;7.68;;;;;;;;;;4994267;28;20034;-54
2023/05/07 11:56:05;;;;;;;7.80;5.40;;;;;;;;;;4992993;28;20058;-55
2023/05/07 11:58:31;;;;;;;16.10;11.38;;;;;;;;;;4993125;28;20084;-54
2023/05/07 12:00:56;;;;;;;23.15;15.13;;;;;;;;;;4993448;28;20023;-55
2023/05/07 12:03:21;;;;;;;34.70;20.75;;;;;;;;;;4994016;28;20138;-54
2023/05/07 12:05:47;;;;;;;24.20;15.45;;;;;;;;;;4993342;28;20034;-54
2023/05/07 12:08:16;;;;;;;24.60;15.60;;;;;;;;;;4992430;28;20042;-54
2023/05/07 12:10:42;;;;;;;18.95;12.07;;;;;;;;;;4993151;28;20026;-55
2023/05/07 12:13:17;;;;;;;43.00;25.52;;;;;;;;;;4993823;28;20389;-55
2023/05/07 12:15:42;;;;;;;28.50;16.63;;;;;;;;;;4992975;28;20469;-54
2023/05/07 12:18:08;;;;;;;16.17;10.23;;;;;;;;;;4993143;28;20125;-54
2023/05/07 12:20:35;;;;;;;46.35;25.55;;;;;;;;;;4994422;28;20022;-54
2023/05/07 12:23:01;;;;;;;59.38;33.60;;;;;;;;;;4994364;28;20030;-55
2023/05/07 12:25:26;;;;;;;37.00;24.45;;;;;;;;;;4994560;28;20085;-55
2023/05/07 12:27:52;;;;;;;17.02;11.90;;;;;;;;;;4994116;28;20038;-54
2023/05/07 12:30:17;;;;;;;26.90;19.73;;;;;;;;;;4993581;28;20040;-55
2023/05/07 12:32:44;;;;;;;14.20;10.85;;;;;;;;;;4992997;28;20034;-55
2023/05/07 12:35:10;;;;;;;16.55;11.68;;;;;;;;;;4993106;28;20030;-55
2023/05/07 12:37:35;;;;;;;11.02;7.97;;;;;;;;;;4993918;28;20096;-55
2023/05/07 12:40:06;;;;;;;15.48;8.07;;;;;;;;;;4993345;28;20440;-55
2023/05/07 12:42:32;;;;;;;11.30;8.63;;;;;;;;;;4992975;28;20516;-55
2023/05/07 12:44:58;;;;;;;13.13;8.30;;;;;;;;;;4992201;28;20073;-54
2023/05/07 12:47:23;;;;;;;12.15;8.68;;;;;;;;;;4993322;28;20018;-55
2023/05/07 12:49:48;;;;;;;7.95;6.85;;;;;;;;;;4993504;28;20416;-55
2023/05/07 12:52:14;;;;;;;8.85;6.90;;;;;;;;;;4992463;28;20408;-54
2023/05/07 12:54:39;;;;;;;19.20;15.32;;;;;;;;;;4993303;28;20045;-55
2023/05/07 12:57:06;;;;;;;19.27;17.33;;;;;;;;;;4994286;28;20037;-55
2023/05/07 12:59:36;;;;;;;9.25;8.32;;;;;;;;;;4994442;28;20027;-54
2023/05/07 13:02:01;;;;;;;8.00;7.30;;;;;;;;;;4994130;28;20053;-54
2023/05/07 13:04:27;;;;;;;11.73;8.02;;;;;;;;;;4992898;28;20453;-55
2023/05/07 13:06:52;;;;;;;12.15;10.55;;;;;;;;;;4994250;28;20030;-54
2023/05/07 13:09:17;;;;;;;10.07;9.15;;;;;;;;;;4994274;28;20069;-55
2023/05/07 13:11:43;;;;;;;6.78;6.10;;;;;;;;;;4994037;28;20030;-55
2023/05/07 13:14:08;;;;;;;13.57;9.85;;;;;;;;;;4994051;28;20030;-54
2023/05/07 13:16:33;;;;;;;18.17;11.15;;;;;;;;;;4994368;28;20421;-55
2023/05/07 13:18:59;;;;;;;21.52;13.15;;;;;;;;;;4996292;28;20065;-55
2023/05/07 13:21:24;;;;;;;16.35;10.02;;;;;;;;;;5013587;28;20061;-54
2023/05/07 13:23:51;;;;;;;12.68;8.88;;;;;;;;;;4998558;28;20033;-54
2023/05/07 13:26:17;;;;;;;15.68;11.65;;;;;;;;;;5017212;28;20461;-54
2023/05/07 13:28:43;;;;;;;9.07;6.50;;;;;;;;;;5017176;28;20377;-54
2023/05/07 13:31:09;;;;;;;9.80;7.28;;;;;;;;;;5017222;28;20037;-54
2023/05/07 13:33:34;;;;;;;7.85;7.20;;;;;;;;;;5016881;28;20028;-55
2023/05/07 13:36:00;;;;;;;4.32;4.03;;;;;;;;;;5017304;28;20021;-54
2023/05/07 13:38:25;;;;;;;5.60;4.95;;;;;;;;;;5017192;28;20112;-54
2023/05/07 13:40:51;;;;;;;4.70;4.30;;;;;;;;;;4983210;28;20057;-55
2023/05/07 13:43:18;;;;;;;25.35;22.67;;;;;;;;;;5017054;28;20022;-54
2023/05/07 13:45:45;;;;;;;2.45;2.35;;;;;;;;;;5016869;28;20030;-54
2023/05/07 13:48:10;;;;;;;9.80;9.02;;;;;;;;;;5016888;28;20108;-55
2023/05/07 13:50:35;;;;;;;7.60;7.00;;;;;;;;;;4999435;28;20118;-55
2023/05/07 13:53:01;;;;;;;6.45;5.85;;;;;;;;;;4999311;28;20048;-55
2023/05/07 13:55:28;;;;;;;5.72;5.32;;;;;;;;;;5016778;28;20026;-55
2023/05/07 13:57:58;;;;;;;8.90;8.18;;;;;;;;;;5017013;28;20056;-55
2023/05/07 14:00:23;;;;;;;8.65;7.82;;;;;;;;;;5016552;28;20106;-55
2023/05/07 14:02:49;;;;;;;4.93;4.43;;;;;;;;;;5016749;28;20101;-55
2023/05/07 14:05:15;;;;;;;7.25;6.55;;;;;;;;;;5016709;28;20460;-55
2023/05/07 14:07:40;;;;;;;5.25;4.85;;;;;;;;;;5016497;28;20033;-55
2023/05/07 14:10:06;;;;;;;12.52;10.25;;;;;;;;;;5016494;28;20030;-55
2023/05/07 14:12:32;;;;;;;18.25;14.70;;;;;;;;;;4998641;28;20022;-55
2023/05/07 14:14:58;;;;;;;11.75;10.52;;;;;;;;;;5016116;28;20034;-55
2023/05/07 14:17:25;;;;;;;4.38;4.05;;;;;;;;;;5016270;28;20042;-55
2023/05/07 14:19:50;;;;;;;13.82;8.93;;;;;;;;;;5016498;28;20029;-55
2023/05/07 14:22:15;;;;;;;6.85;6.15;;;;;;;;;;5016023;28;20112;-55
2023/05/07 14:24:41;;;;;;;6.85;5.03;;;;;;;;;;5016298;28;20033;-55
2023/05/07 14:27:06;;;;;;;6.38;5.20;;;;;;;;;;5016203;28;20034;-55
2023/05/07 14:29:32;;;;;;;66.85;45.00;;;;;;;;;;5016320;28;20034;-55
2023/05/07 14:31:57;;;;;;;22.25;18.00;;;;;;;;;;5016364;28;20112;-55
2023/05/07 14:34:23;;;;;;;15.88;14.02;;;;;;;;;;5016088;28;20038;-55
2023/05/07 14:36:48;;;;;;;32.17;25.17;;;;;;;;;;5016046;28;20084;-55
2023/05/07 14:39:13;;;;;;;9.90;8.32;;;;;;;;;;5015817;28;20034;-55